sensor_id;sensor_type;location;lat;lon;timestamp;temperature;humidity
16287;DHT22;8251;53.568;10.018;2022-12-07T00:01:19;6.80;90.80
16287;DHT22;8251;53.568;10.018;2022-12-07T00:03:48;6.90;90.80
16287;DHT22;8251;53.568;10.018;2022-12-07T00:06:16;6.80;90.80
16287;DHT22;8251;53.568;10.018;2022-12-07T00:08:45;6.80;90.90
16287;DHT22;8251;53.568;10.018;2022-12-07T00:11:14;6.90;90.90
16287;DHT22;8251;53.568;10.018;2022-12-07T00:13:41;6.80;90.90
16287;DHT22;8251;53.568;10.018;2022-12-07T00:16:11;6.80;90.90
16287;DHT22;8251;53.568;10.018;2022-12-07T00:18:38;6.90;90.90
16287;DHT22;8251;53.568;10.018;2022-12-07T00:21:09;6.90;90.90
16287;DHT22;8251;53.568;10.018;2022-12-07T00:23:36;6.90;90.80
16287;DHT22;8251;53.568;10.018;2022-12-07T00:26:04;7.00;90.90
16287;DHT22;8251;53.568;10.018;2022-12-07T00:28:31;7.00;90.80
16287;DHT22;8251;53.568;10.018;2022-12-07T00:31:01;7.00;90.80
16287;DHT22;8251;53.568;10.018;2022-12-07T00:33:28;7.00;90.70
16287;DHT22;8251;53.568;10.018;2022-12-07T00:35:56;6.90;90.90
16287;DHT22;8251;53.568;10.018;2022-12-07T00:38:26;6.80;90.90
16287;DHT22;8251;53.568;10.018;2022-12-07T00:40:55;6.80;91.00
16287;DHT22;8251;53.568;10.018;2022-12-07T00:43:22;6.80;91.20
16287;DHT22;8251;53.568;10.018;2022-12-07T00:45:49;6.80;91.20
16287;DHT22;8251;53.568;10.018;2022-12-07T00:48:16;6.90;91.20
16287;DHT22;8251;53.568;10.018;2022-12-07T00:50:43;6.90;91.10
16287;DHT22;8251;53.568;10.018;2022-12-07T00:53:10;6.90;91.20
16287;DHT22;8251;53.568;10.018;2022-12-07T00:55:39;7.00;91.20
16287;DHT22;8251;53.568;10.018;2022-12-07T00:58:06;6.90;91.00
16287;DHT22;8251;53.568;10.018;2022-12-07T01:00:33;6.90;91.10
16287;DHT22;8251;53.568;10.018;2022-12-07T01:03:01;6.90;91.10
16287;DHT22;8251;53.568;10.018;2022-12-07T01:05:28;6.90;91.00
16287;DHT22;8251;53.568;10.018;2022-12-07T01:07:55;6.90;91.10
16287;DHT22;8251;53.568;10.018;2022-12-07T01:10:22;6.90;91.00
16287;DHT22;8251;53.568;10.018;2022-12-07T01:12:50;7.00;91.00
16287;DHT22;8251;53.568;10.018;2022-12-07T01:15:18;7.00;91.00
16287;DHT22;8251;53.568;10.018;2022-12-07T01:17:45;7.00;91.00
16287;DHT22;8251;53.568;10.018;2022-12-07T01:20:13;7.00;91.00
16287;DHT22;8251;53.568;10.018;2022-12-07T01:22:41;7.00;91.00
16287;DHT22;8251;53.568;10.018;2022-12-07T01:25:10;7.00;90.90
16287;DHT22;8251;53.568;10.018;2022-12-07T01:27:37;7.00;90.90
16287;DHT22;8251;53.568;10.018;2022-12-07T01:30:07;7.00;90.90
16287;DHT22;8251;53.568;10.018;2022-12-07T01:32:34;6.90;90.90
16287;DHT22;8251;53.568;10.018;2022-12-07T01:35:01;7.00;90.80
16287;DHT22;8251;53.568;10.018;2022-12-07T01:37:33;6.90;90.90
16287;DHT22;8251;53.568;10.018;2022-12-07T01:40:00;6.90;90.90
16287;DHT22;8251;53.568;10.018;2022-12-07T01:42:28;6.90;90.90
16287;DHT22;8251;53.568;10.018;2022-12-07T01:48:07;6.90;90.90
16287;DHT22;8251;53.568;10.018;2022-12-07T01:50:36;6.90;91.00
16287;DHT22;8251;53.568;10.018;2022-12-07T01:53:05;6.90;91.10
16287;DHT22;8251;53.568;10.018;2022-12-07T01:55:34;6.90;91.00
16287;DHT22;8251;53.568;10.018;2022-12-07T01:58:04;6.90;90.90
16287;DHT22;8251;53.568;10.018;2022-12-07T02:00:31;6.90;90.90
16287;DHT22;8251;53.568;10.018;2022-12-07T02:03:04;6.90;91.00
16287;DHT22;8251;53.568;10.018;2022-12-07T02:05:34;6.90;91.00
16287;DHT22;8251;53.568;10.018;2022-12-07T02:08:03;6.90;90.90
16287;DHT22;8251;53.568;10.018;2022-12-07T02:10:31;6.90;90.90
16287;DHT22;8251;53.568;10.018;2022-12-07T02:13:04;6.90;90.90
16287;DHT22;8251;53.568;10.018;2022-12-07T02:15:41;6.90;91.00
16287;DHT22;8251;53.568;10.018;2022-12-07T02:18:17;6.80;90.90
16287;DHT22;8251;53.568;10.018;2022-12-07T02:20:55;6.90;90.90
16287;DHT22;8251;53.568;10.018;2022-12-07T02:23:40;6.80;90.90
16287;DHT22;8251;53.568;10.018;2022-12-07T02:29:15;6.80;90.90
16287;DHT22;8251;53.568;10.018;2022-12-07T02:31:49;6.80;90.90
16287;DHT22;8251;53.568;10.018;2022-12-07T02:34:22;6.70;90.90
16287;DHT22;8251;53.568;10.018;2022-12-07T02:36:57;6.80;90.90
16287;DHT22;8251;53.568;10.018;2022-12-07T02:39:33;6.80;90.80
16287;DHT22;8251;53.568;10.018;2022-12-07T02:42:12;6.80;90.70
16287;DHT22;8251;53.568;10.018;2022-12-07T02:44:42;6.80;90.70
16287;DHT22;8251;53.568;10.018;2022-12-07T02:47:13;6.80;90.70
16287;DHT22;8251;53.568;10.018;2022-12-07T02:49:41;6.80;90.60
16287;DHT22;8251;53.568;10.018;2022-12-07T02:52:08;6.70;90.40
16287;DHT22;8251;53.568;10.018;2022-12-07T02:54:35;6.80;90.50
16287;DHT22;8251;53.568;10.018;2022-12-07T02:57:08;6.80;90.40
16287;DHT22;8251;53.568;10.018;2022-12-07T02:59:48;6.80;90.40
16287;DHT22;8251;53.568;10.018;2022-12-07T03:02:25;6.80;90.30
16287;DHT22;8251;53.568;10.018;2022-12-07T03:05:02;6.80;90.30
16287;DHT22;8251;53.568;10.018;2022-12-07T03:07:42;6.70;90.20
16287;DHT22;8251;53.568;10.018;2022-12-07T03:10:18;6.70;90.10
16287;DHT22;8251;53.568;10.018;2022-12-07T03:12:58;6.70;90.20
16287;DHT22;8251;53.568;10.018;2022-12-07T03:15:32;6.70;90.00
16287;DHT22;8251;53.568;10.018;2022-12-07T03:18:01;6.70;90.00
16287;DHT22;8251;53.568;10.018;2022-12-07T03:20:30;6.70;90.00
16287;DHT22;8251;53.568;10.018;2022-12-07T03:22:59;6.70;90.30
16287;DHT22;8251;53.568;10.018;2022-12-07T03:25:27;6.60;90.00
16287;DHT22;8251;53.568;10.018;2022-12-07T03:27:57;6.60;89.60
16287;DHT22;8251;53.568;10.018;2022-12-07T03:30:29;6.60;89.80
16287;DHT22;8251;53.568;10.018;2022-12-07T03:33:00;6.60;90.10
16287;DHT22;8251;53.568;10.018;2022-12-07T03:35:32;6.60;89.70
16287;DHT22;8251;53.568;10.018;2022-12-07T03:38:06;6.60;89.60
16287;DHT22;8251;53.568;10.018;2022-12-07T03:40:39;6.60;89.60
16287;DHT22;8251;53.568;10.018;2022-12-07T03:43:07;6.60;89.30
16287;DHT22;8251;53.568;10.018;2022-12-07T03:45:39;6.50;90.10
16287;DHT22;8251;53.568;10.018;2022-12-07T03:48:10;6.50;89.20
16287;DHT22;8251;53.568;10.018;2022-12-07T03:50:45;6.50;89.40
16287;DHT22;8251;53.568;10.018;2022-12-07T03:53:19;6.50;89.40
16287;DHT22;8251;53.568;10.018;2022-12-07T03:55:48;6.50;89.30
16287;DHT22;8251;53.568;10.018;2022-12-07T03:58:18;6.50;89.40
16287;DHT22;8251;53.568;10.018;2022-12-07T04:00:48;6.40;89.50
16287;DHT22;8251;53.568;10.018;2022-12-07T04:03:16;6.40;89.50
16287;DHT22;8251;53.568;10.018;2022-12-07T04:05:44;6.40;89.50
16287;DHT22;8251;53.568;10.018;2022-12-07T04:08:11;6.50;89.60
16287;DHT22;8251;53.568;10.018;2022-12-07T04:10:38;6.40;89.30
16287;DHT22;8251;53.568;10.018;2022-12-07T04:13:05;6.40;89.10
16287;DHT22;8251;53.568;10.018;2022-12-07T04:15:32;6.40;89.20
16287;DHT22;8251;53.568;10.018;2022-12-07T04:18:00;6.40;89.10
16287;DHT22;8251;53.568;10.018;2022-12-07T04:20:27;6.30;89.00
16287;DHT22;8251;53.568;10.018;2022-12-07T04:22:54;6.30;89.20
16287;DHT22;8251;53.568;10.018;2022-12-07T04:25:21;6.30;89.20
16287;DHT22;8251;53.568;10.018;2022-12-07T04:27:48;6.30;89.20
16287;DHT22;8251;53.568;10.018;2022-12-07T04:30:15;6.30;89.20
16287;DHT22;8251;53.568;10.018;2022-12-07T04:32:42;6.30;89.10
16287;DHT22;8251;53.568;10.018;2022-12-07T04:35:10;6.30;89.20
16287;DHT22;8251;53.568;10.018;2022-12-07T04:37:37;6.30;89.20
16287;DHT22;8251;53.568;10.018;2022-12-07T04:40:07;6.30;89.20
16287;DHT22;8251;53.568;10.018;2022-12-07T04:42:35;6.30;88.90
16287;DHT22;8251;53.568;10.018;2022-12-07T04:45:03;6.30;88.90
16287;DHT22;8251;53.568;10.018;2022-12-07T04:47:30;6.30;88.90
16287;DHT22;8251;53.568;10.018;2022-12-07T04:49:57;6.30;88.70
16287;DHT22;8251;53.568;10.018;2022-12-07T04:52:25;6.30;88.70
16287;DHT22;8251;53.568;10.018;2022-12-07T04:54:52;6.30;88.60
16287;DHT22;8251;53.568;10.018;2022-12-07T04:57:19;6.20;88.70
16287;DHT22;8251;53.568;10.018;2022-12-07T04:59:46;6.30;88.80
16287;DHT22;8251;53.568;10.018;2022-12-07T05:02:13;6.30;88.60
16287;DHT22;8251;53.568;10.018;2022-12-07T05:04:40;6.30;88.40
16287;DHT22;8251;53.568;10.018;2022-12-07T05:07:07;6.20;88.20
16287;DHT22;8251;53.568;10.018;2022-12-07T05:09:35;6.20;88.20
16287;DHT22;8251;53.568;10.018;2022-12-07T05:12:02;6.20;88.20
16287;DHT22;8251;53.568;10.018;2022-12-07T05:14:28;6.20;88.30
16287;DHT22;8251;53.568;10.018;2022-12-07T05:16:55;6.20;88.30
16287;DHT22;8251;53.568;10.018;2022-12-07T05:19:22;6.20;88.30
16287;DHT22;8251;53.568;10.018;2022-12-07T05:21:49;6.30;88.40
16287;DHT22;8251;53.568;10.018;2022-12-07T05:24:17;6.30;88.30
16287;DHT22;8251;53.568;10.018;2022-12-07T05:26:45;6.20;88.20
16287;DHT22;8251;53.568;10.018;2022-12-07T05:29:16;6.30;88.30
16287;DHT22;8251;53.568;10.018;2022-12-07T05:31:43;6.30;88.20
16287;DHT22;8251;53.568;10.018;2022-12-07T05:34:11;6.30;88.00
16287;DHT22;8251;53.568;10.018;2022-12-07T05:36:40;6.30;88.00
16287;DHT22;8251;53.568;10.018;2022-12-07T05:39:12;6.30;88.00
16287;DHT22;8251;53.568;10.018;2022-12-07T05:41:42;6.30;87.90
16287;DHT22;8251;53.568;10.018;2022-12-07T05:44:28;6.30;87.70
16287;DHT22;8251;53.568;10.018;2022-12-07T05:46:55;6.30;87.80
16287;DHT22;8251;53.568;10.018;2022-12-07T05:49:22;6.30;87.80
16287;DHT22;8251;53.568;10.018;2022-12-07T05:51:49;6.30;87.80
16287;DHT22;8251;53.568;10.018;2022-12-07T05:54:16;6.30;87.70
16287;DHT22;8251;53.568;10.018;2022-12-07T05:56:42;6.30;87.60
16287;DHT22;8251;53.568;10.018;2022-12-07T05:59:09;6.30;87.60
16287;DHT22;8251;53.568;10.018;2022-12-07T06:01:49;6.30;88.30
16287;DHT22;8251;53.568;10.018;2022-12-07T06:04:16;6.30;87.30
16287;DHT22;8251;53.568;10.018;2022-12-07T06:06:43;6.40;87.40
16287;DHT22;8251;53.568;10.018;2022-12-07T06:09:10;6.30;87.30
16287;DHT22;8251;53.568;10.018;2022-12-07T06:11:37;6.30;87.20
16287;DHT22;8251;53.568;10.018;2022-12-07T06:14:22;6.30;87.00
16287;DHT22;8251;53.568;10.018;2022-12-07T06:16:50;6.30;87.10
16287;DHT22;8251;53.568;10.018;2022-12-07T06:19:20;6.30;87.00
16287;DHT22;8251;53.568;10.018;2022-12-07T06:21:54;6.30;87.00
16287;DHT22;8251;53.568;10.018;2022-12-07T06:24:25;6.30;87.70
16287;DHT22;8251;53.568;10.018;2022-12-07T06:26:52;6.30;86.90
16287;DHT22;8251;53.568;10.018;2022-12-07T06:29:19;6.30;86.90
16287;DHT22;8251;53.568;10.018;2022-12-07T06:31:46;6.30;86.90
16287;DHT22;8251;53.568;10.018;2022-12-07T06:34:16;6.30;87.00
16287;DHT22;8251;53.568;10.018;2022-12-07T06:36:44;6.30;87.20
16287;DHT22;8251;53.568;10.018;2022-12-07T06:39:13;6.30;87.20
16287;DHT22;8251;53.568;10.018;2022-12-07T06:41:39;6.30;87.10
16287;DHT22;8251;53.568;10.018;2022-12-07T06:44:07;6.30;87.20
16287;DHT22;8251;53.568;10.018;2022-12-07T06:46:34;6.30;87.30
16287;DHT22;8251;53.568;10.018;2022-12-07T06:49:02;6.30;87.30
16287;DHT22;8251;53.568;10.018;2022-12-07T06:51:30;6.30;87.40
16287;DHT22;8251;53.568;10.018;2022-12-07T06:53:57;6.30;87.40
16287;DHT22;8251;53.568;10.018;2022-12-07T06:56:25;6.20;87.60
16287;DHT22;8251;53.568;10.018;2022-12-07T06:58:52;6.20;87.80
16287;DHT22;8251;53.568;10.018;2022-12-07T07:01:20;6.20;88.00
16287;DHT22;8251;53.568;10.018;2022-12-07T07:03:47;6.20;88.10
16287;DHT22;8251;53.568;10.018;2022-12-07T07:06:14;6.20;88.20
16287;DHT22;8251;53.568;10.018;2022-12-07T07:08:43;6.20;88.30
16287;DHT22;8251;53.568;10.018;2022-12-07T07:11:10;6.20;88.20
16287;DHT22;8251;53.568;10.018;2022-12-07T07:13:37;6.20;88.20
16287;DHT22;8251;53.568;10.018;2022-12-07T07:16:06;6.20;88.20
16287;DHT22;8251;53.568;10.018;2022-12-07T07:18:33;6.20;88.20
16287;DHT22;8251;53.568;10.018;2022-12-07T07:21:00;6.20;88.30
16287;DHT22;8251;53.568;10.018;2022-12-07T07:23:27;6.20;88.40
16287;DHT22;8251;53.568;10.018;2022-12-07T07:25:56;6.20;88.40
16287;DHT22;8251;53.568;10.018;2022-12-07T07:28:24;6.20;88.40
16287;DHT22;8251;53.568;10.018;2022-12-07T07:30:51;6.20;88.40
16287;DHT22;8251;53.568;10.018;2022-12-07T07:33:18;6.20;88.40
16287;DHT22;8251;53.568;10.018;2022-12-07T07:35:45;6.20;88.20
16287;DHT22;8251;53.568;10.018;2022-12-07T07:38:15;6.20;88.30
16287;DHT22;8251;53.568;10.018;2022-12-07T07:40:42;6.20;88.40
16287;DHT22;8251;53.568;10.018;2022-12-07T07:43:11;6.20;88.30
16287;DHT22;8251;53.568;10.018;2022-12-07T07:45:38;6.20;88.40
16287;DHT22;8251;53.568;10.018;2022-12-07T07:48:05;6.20;88.40
16287;DHT22;8251;53.568;10.018;2022-12-07T07:50:32;6.20;88.30
16287;DHT22;8251;53.568;10.018;2022-12-07T07:52:59;6.30;88.30
16287;DHT22;8251;53.568;10.018;2022-12-07T07:55:26;6.30;88.30
16287;DHT22;8251;53.568;10.018;2022-12-07T07:57:54;6.30;88.30
16287;DHT22;8251;53.568;10.018;2022-12-07T08:00:22;6.30;88.30
16287;DHT22;8251;53.568;10.018;2022-12-07T08:02:49;6.30;88.40
16287;DHT22;8251;53.568;10.018;2022-12-07T08:05:16;6.40;88.40
16287;DHT22;8251;53.568;10.018;2022-12-07T08:07:43;6.30;88.20
16287;DHT22;8251;53.568;10.018;2022-12-07T08:10:12;6.40;88.20
16287;DHT22;8251;53.568;10.018;2022-12-07T08:12:41;6.40;88.10
16287;DHT22;8251;53.568;10.018;2022-12-07T08:15:24;6.50;88.20
16287;DHT22;8251;53.568;10.018;2022-12-07T08:17:51;6.50;88.10
16287;DHT22;8251;53.568;10.018;2022-12-07T08:20:19;6.50;87.90
16287;DHT22;8251;53.568;10.018;2022-12-07T08:22:46;6.50;87.90
16287;DHT22;8251;53.568;10.018;2022-12-07T08:25:13;6.60;88.00
16287;DHT22;8251;53.568;10.018;2022-12-07T08:27:40;6.60;87.80
16287;DHT22;8251;53.568;10.018;2022-12-07T08:30:08;6.60;87.70
16287;DHT22;8251;53.568;10.018;2022-12-07T08:32:36;6.60;87.60
16287;DHT22;8251;53.568;10.018;2022-12-07T08:35:04;6.70;87.60
16287;DHT22;8251;53.568;10.018;2022-12-07T08:37:32;6.70;87.50
16287;DHT22;8251;53.568;10.018;2022-12-07T08:40:02;6.80;87.40
16287;DHT22;8251;53.568;10.018;2022-12-07T08:42:30;6.70;87.30
16287;DHT22;8251;53.568;10.018;2022-12-07T08:45:04;6.70;87.30
16287;DHT22;8251;53.568;10.018;2022-12-07T08:47:37;6.80;87.30
16287;DHT22;8251;53.568;10.018;2022-12-07T08:50:07;6.80;87.20
16287;DHT22;8251;53.568;10.018;2022-12-07T08:52:37;6.80;87.30
16287;DHT22;8251;53.568;10.018;2022-12-07T08:55:12;6.80;87.10
16287;DHT22;8251;53.568;10.018;2022-12-07T08:57:41;6.90;87.30
16287;DHT22;8251;53.568;10.018;2022-12-07T09:00:09;6.90;87.10
16287;DHT22;8251;53.568;10.018;2022-12-07T09:02:38;6.90;87.30
16287;DHT22;8251;53.568;10.018;2022-12-07T09:05:05;7.00;87.30
16287;DHT22;8251;53.568;10.018;2022-12-07T09:07:34;7.00;88.00
16287;DHT22;8251;53.568;10.018;2022-12-07T09:10:01;7.00;87.20
16287;DHT22;8251;53.568;10.018;2022-12-07T09:12:28;7.00;87.20
16287;DHT22;8251;53.568;10.018;2022-12-07T09:14:55;7.10;87.30
16287;DHT22;8251;53.568;10.018;2022-12-07T09:17:22;7.10;87.10
16287;DHT22;8251;53.568;10.018;2022-12-07T09:19:59;7.20;87.20
16287;DHT22;8251;53.568;10.018;2022-12-07T09:22:30;7.20;87.10
16287;DHT22;8251;53.568;10.018;2022-12-07T09:25:00;7.20;86.90
16287;DHT22;8251;53.568;10.018;2022-12-07T09:27:27;7.30;86.90
16287;DHT22;8251;53.568;10.018;2022-12-07T09:29:54;7.30;86.70
16287;DHT22;8251;53.568;10.018;2022-12-07T09:32:23;7.30;86.70
16287;DHT22;8251;53.568;10.018;2022-12-07T09:34:51;7.30;86.70
16287;DHT22;8251;53.568;10.018;2022-12-07T09:37:18;7.30;86.80
16287;DHT22;8251;53.568;10.018;2022-12-07T09:39:49;7.30;86.80
16287;DHT22;8251;53.568;10.018;2022-12-07T09:42:30;7.30;86.70
16287;DHT22;8251;53.568;10.018;2022-12-07T09:45:06;7.40;86.70
16287;DHT22;8251;53.568;10.018;2022-12-07T09:47:34;7.40;86.70
16287;DHT22;8251;53.568;10.018;2022-12-07T09:50:06;7.30;86.60
16287;DHT22;8251;53.568;10.018;2022-12-07T09:52:34;7.40;86.70
16287;DHT22;8251;53.568;10.018;2022-12-07T09:55:01;7.50;86.80
16287;DHT22;8251;53.568;10.018;2022-12-07T09:57:32;7.50;86.60
16287;DHT22;8251;53.568;10.018;2022-12-07T10:00:02;7.50;86.50
16287;DHT22;8251;53.568;10.018;2022-12-07T10:02:36;7.50;86.40
16287;DHT22;8251;53.568;10.018;2022-12-07T10:05:06;7.60;86.10
16287;DHT22;8251;53.568;10.018;2022-12-07T10:07:33;7.60;86.10
16287;DHT22;8251;53.568;10.018;2022-12-07T10:10:03;7.60;85.70
16287;DHT22;8251;53.568;10.018;2022-12-07T10:12:30;7.70;85.90
16287;DHT22;8251;53.568;10.018;2022-12-07T10:15:01;7.60;85.50
16287;DHT22;8251;53.568;10.018;2022-12-07T10:17:37;7.70;85.50
16287;DHT22;8251;53.568;10.018;2022-12-07T10:20:26;7.70;85.30
16287;DHT22;8251;53.568;10.018;2022-12-07T10:22:58;7.70;85.20
16287;DHT22;8251;53.568;10.018;2022-12-07T10:25:29;7.80;85.00
16287;DHT22;8251;53.568;10.018;2022-12-07T10:28:00;7.80;84.70
16287;DHT22;8251;53.568;10.018;2022-12-07T10:30:27;7.80;84.30
16287;DHT22;8251;53.568;10.018;2022-12-07T10:32:54;7.80;83.90
16287;DHT22;8251;53.568;10.018;2022-12-07T10:35:45;7.70;83.70
16287;DHT22;8251;53.568;10.018;2022-12-07T10:38:17;7.60;83.70
16287;DHT22;8251;53.568;10.018;2022-12-07T10:40:44;7.70;84.00
16287;DHT22;8251;53.568;10.018;2022-12-07T10:43:18;7.70;83.50
16287;DHT22;8251;53.568;10.018;2022-12-07T10:48:59;7.80;83.30
16287;DHT22;8251;53.568;10.018;2022-12-07T10:51:38;7.80;83.00
16287;DHT22;8251;53.568;10.018;2022-12-07T10:54:14;7.80;83.00
16287;DHT22;8251;53.568;10.018;2022-12-07T10:56:57;7.90;83.30
16287;DHT22;8251;53.568;10.018;2022-12-07T10:59:55;7.90;82.80
16287;DHT22;8251;53.568;10.018;2022-12-07T11:03:08;8.00;82.80
16287;DHT22;8251;53.568;10.018;2022-12-07T11:06:14;8.00;82.20
16287;DHT22;8251;53.568;10.018;2022-12-07T11:09:16;8.00;82.30
16287;DHT22;8251;53.568;10.018;2022-12-07T11:12:01;8.00;82.00
16287;DHT22;8251;53.568;10.018;2022-12-07T11:14:41;8.00;82.00
16287;DHT22;8251;53.568;10.018;2022-12-07T11:17:20;8.00;81.90
16287;DHT22;8251;53.568;10.018;2022-12-07T11:20:02;8.00;81.60
16287;DHT22;8251;53.568;10.018;2022-12-07T11:22:40;8.00;81.00
16287;DHT22;8251;53.568;10.018;2022-12-07T11:25:25;8.00;81.10
16287;DHT22;8251;53.568;10.018;2022-12-07T11:28:10;8.00;80.80
16287;DHT22;8251;53.568;10.018;2022-12-07T11:30:47;8.00;80.10
16287;DHT22;8251;53.568;10.018;2022-12-07T11:33:22;7.90;80.40
16287;DHT22;8251;53.568;10.018;2022-12-07T11:36:01;8.00;80.70
16287;DHT22;8251;53.568;10.018;2022-12-07T11:38:37;8.00;80.40
16287;DHT22;8251;53.568;10.018;2022-12-07T11:41:10;8.00;80.60
16287;DHT22;8251;53.568;10.018;2022-12-07T11:44:02;8.00;80.80
16287;DHT22;8251;53.568;10.018;2022-12-07T11:46:47;8.00;80.20
16287;DHT22;8251;53.568;10.018;2022-12-07T11:49:22;8.00;80.30
16287;DHT22;8251;53.568;10.018;2022-12-07T11:51:54;8.10;80.40
16287;DHT22;8251;53.568;10.018;2022-12-07T11:54:46;8.10;80.00
16287;DHT22;8251;53.568;10.018;2022-12-07T11:57:28;8.10;79.90
16287;DHT22;8251;53.568;10.018;2022-12-07T12:00:03;8.10;79.50
16287;DHT22;8251;53.568;10.018;2022-12-07T12:02:48;8.00;78.70
16287;DHT22;8251;53.568;10.018;2022-12-07T12:05:20;8.00;78.70
16287;DHT22;8251;53.568;10.018;2022-12-07T12:07:51;8.00;78.70
16287;DHT22;8251;53.568;10.018;2022-12-07T12:10:24;8.10;78.50
16287;DHT22;8251;53.568;10.018;2022-12-07T12:13:29;8.10;78.30
16287;DHT22;8251;53.568;10.018;2022-12-07T12:16:19;8.10;77.90
16287;DHT22;8251;53.568;10.018;2022-12-07T12:19:05;8.10;77.90
16287;DHT22;8251;53.568;10.018;2022-12-07T12:21:36;8.10;78.10
16287;DHT22;8251;53.568;10.018;2022-12-07T12:24:13;8.10;78.40
16287;DHT22;8251;53.568;10.018;2022-12-07T12:27:17;8.20;78.20
16287;DHT22;8251;53.568;10.018;2022-12-07T12:30:00;8.20;77.90
16287;DHT22;8251;53.568;10.018;2022-12-07T12:32:38;8.10;77.40
16287;DHT22;8251;53.568;10.018;2022-12-07T12:35:28;8.10;77.60
16287;DHT22;8251;53.568;10.018;2022-12-07T12:45:18;8.10;77.10
16287;DHT22;8251;53.568;10.018;2022-12-07T12:47:58;8.10;77.40
16287;DHT22;8251;53.568;10.018;2022-12-07T12:50:35;8.10;77.70
16287;DHT22;8251;53.568;10.018;2022-12-07T12:53:19;8.10;77.30
16287;DHT22;8251;53.568;10.018;2022-12-07T12:56:15;8.10;77.30
16287;DHT22;8251;53.568;10.018;2022-12-07T12:58:47;8.10;77.80
16287;DHT22;8251;53.568;10.018;2022-12-07T13:01:40;8.00;77.50
16287;DHT22;8251;53.568;10.018;2022-12-07T13:04:38;8.00;76.60
16287;DHT22;8251;53.568;10.018;2022-12-07T13:10:22;8.00;75.80
16287;DHT22;8251;53.568;10.018;2022-12-07T13:12:57;8.00;75.80
16287;DHT22;8251;53.568;10.018;2022-12-07T13:15:37;8.00;76.20
16287;DHT22;8251;53.568;10.018;2022-12-07T13:18:25;8.10;75.60
16287;DHT22;8251;53.568;10.018;2022-12-07T13:21:43;8.10;75.50
16287;DHT22;8251;53.568;10.018;2022-12-07T13:24:12;8.00;74.70
16287;DHT22;8251;53.568;10.018;2022-12-07T13:26:41;8.00;74.80
16287;DHT22;8251;53.568;10.018;2022-12-07T13:29:13;8.00;74.90
16287;DHT22;8251;53.568;10.018;2022-12-07T13:31:42;8.00;73.80
16287;DHT22;8251;53.568;10.018;2022-12-07T13:34:31;8.00;73.70
16287;DHT22;8251;53.568;10.018;2022-12-07T13:37:01;8.00;72.70
16287;DHT22;8251;53.568;10.018;2022-12-07T13:39:28;8.00;72.30
16287;DHT22;8251;53.568;10.018;2022-12-07T13:41:56;8.00;70.60
16287;DHT22;8251;53.568;10.018;2022-12-07T13:44:25;7.90;69.90
16287;DHT22;8251;53.568;10.018;2022-12-07T13:46:58;7.90;70.60
16287;DHT22;8251;53.568;10.018;2022-12-07T13:49:28;7.90;70.80
16287;DHT22;8251;53.568;10.018;2022-12-07T13:52:14;8.00;70.30
16287;DHT22;8251;53.568;10.018;2022-12-07T13:54:45;8.00;68.80
16287;DHT22;8251;53.568;10.018;2022-12-07T13:57:12;8.00;68.10
16287;DHT22;8251;53.568;10.018;2022-12-07T13:59:39;8.00;68.00
16287;DHT22;8251;53.568;10.018;2022-12-07T14:02:18;8.00;67.40
16287;DHT22;8251;53.568;10.018;2022-12-07T14:04:47;8.00;67.60
16287;DHT22;8251;53.568;10.018;2022-12-07T14:07:24;8.00;66.60
16287;DHT22;8251;53.568;10.018;2022-12-07T14:09:56;7.90;65.50
16287;DHT22;8251;53.568;10.018;2022-12-07T14:12:23;7.80;65.70
16287;DHT22;8251;53.568;10.018;2022-12-07T14:14:51;7.80;65.70
16287;DHT22;8251;53.568;10.018;2022-12-07T14:17:21;7.80;65.60
16287;DHT22;8251;53.568;10.018;2022-12-07T14:19:51;7.80;66.00
16287;DHT22;8251;53.568;10.018;2022-12-07T14:22:25;7.80;66.30
16287;DHT22;8251;53.568;10.018;2022-12-07T14:24:59;7.80;66.10
16287;DHT22;8251;53.568;10.018;2022-12-07T14:27:31;7.80;66.40
16287;DHT22;8251;53.568;10.018;2022-12-07T14:29:59;7.80;66.80
16287;DHT22;8251;53.568;10.018;2022-12-07T14:32:29;7.90;66.50
16287;DHT22;8251;53.568;10.018;2022-12-07T14:34:58;7.80;66.20
16287;DHT22;8251;53.568;10.018;2022-12-07T14:37:28;7.80;66.60
16287;DHT22;8251;53.568;10.018;2022-12-07T14:39:55;7.80;66.60
16287;DHT22;8251;53.568;10.018;2022-12-07T14:42:24;7.80;66.70
16287;DHT22;8251;53.568;10.018;2022-12-07T14:44:53;7.80;65.90
16287;DHT22;8251;53.568;10.018;2022-12-07T14:47:21;7.80;66.00
16287;DHT22;8251;53.568;10.018;2022-12-07T14:49:48;7.80;66.10
16287;DHT22;8251;53.568;10.018;2022-12-07T14:52:16;7.80;66.20
16287;DHT22;8251;53.568;10.018;2022-12-07T14:54:46;7.70;65.70
16287;DHT22;8251;53.568;10.018;2022-12-07T14:57:15;7.70;66.40
16287;DHT22;8251;53.568;10.018;2022-12-07T14:59:47;7.70;66.60
16287;DHT22;8251;53.568;10.018;2022-12-07T15:02:17;7.70;66.60
16287;DHT22;8251;53.568;10.018;2022-12-07T15:04:44;7.70;66.40
16287;DHT22;8251;53.568;10.018;2022-12-07T15:07:18;7.60;66.60
16287;DHT22;8251;53.568;10.018;2022-12-07T15:09:50;7.60;66.80
16287;DHT22;8251;53.568;10.018;2022-12-07T15:12:17;7.60;67.20
16287;DHT22;8251;53.568;10.018;2022-12-07T15:14:53;7.60;67.40
16287;DHT22;8251;53.568;10.018;2022-12-07T15:17:29;7.60;67.20
16287;DHT22;8251;53.568;10.018;2022-12-07T15:20:05;7.60;67.30
16287;DHT22;8251;53.568;10.018;2022-12-07T15:22:40;7.50;67.60
16287;DHT22;8251;53.568;10.018;2022-12-07T15:25:13;7.60;67.80
16287;DHT22;8251;53.568;10.018;2022-12-07T15:27:39;7.50;67.60
16287;DHT22;8251;53.568;10.018;2022-12-07T15:30:07;7.50;67.80
16287;DHT22;8251;53.568;10.018;2022-12-07T15:32:34;7.50;67.20
16287;DHT22;8251;53.568;10.018;2022-12-07T15:35:01;7.40;67.10
16287;DHT22;8251;53.568;10.018;2022-12-07T15:37:28;7.40;67.30
16287;DHT22;8251;53.568;10.018;2022-12-07T15:39:55;7.40;67.30
16287;DHT22;8251;53.568;10.018;2022-12-07T15:42:23;7.30;67.00
16287;DHT22;8251;53.568;10.018;2022-12-07T15:44:50;7.30;66.90
16287;DHT22;8251;53.568;10.018;2022-12-07T15:47:33;7.30;66.90
16287;DHT22;8251;53.568;10.018;2022-12-07T15:50:00;7.30;67.30
16287;DHT22;8251;53.568;10.018;2022-12-07T15:52:27;7.20;67.30
16287;DHT22;8251;53.568;10.018;2022-12-07T15:54:57;7.20;66.90
16287;DHT22;8251;53.568;10.018;2022-12-07T15:57:27;7.20;67.10
16287;DHT22;8251;53.568;10.018;2022-12-07T15:59:54;7.10;67.40
16287;DHT22;8251;53.568;10.018;2022-12-07T16:02:21;7.10;67.40
16287;DHT22;8251;53.568;10.018;2022-12-07T16:04:48;7.10;67.50
16287;DHT22;8251;53.568;10.018;2022-12-07T16:07:16;7.10;67.30
16287;DHT22;8251;53.568;10.018;2022-12-07T16:09:44;7.10;67.50
16287;DHT22;8251;53.568;10.018;2022-12-07T16:12:12;7.10;67.70
16287;DHT22;8251;53.568;10.018;2022-12-07T16:14:41;7.00;67.90
16287;DHT22;8251;53.568;10.018;2022-12-07T16:17:09;7.10;67.80
16287;DHT22;8251;53.568;10.018;2022-12-07T16:19:36;7.10;68.00
16287;DHT22;8251;53.568;10.018;2022-12-07T16:22:04;7.10;68.10
16287;DHT22;8251;53.568;10.018;2022-12-07T16:24:31;7.00;68.10
16287;DHT22;8251;53.568;10.018;2022-12-07T16:26:59;7.00;68.40
16287;DHT22;8251;53.568;10.018;2022-12-07T16:29:26;7.00;68.50
16287;DHT22;8251;53.568;10.018;2022-12-07T16:31:54;7.00;68.60